Time;durP1;ratioP1;P1;durP2;ratioP2;P2;SDS_P1;SDS_P2;PMS_P1;PMS_P2;Temp;Humidity;BMP_temperature;BMP_pressure;BME280_temperature;BME280_humidity;BME280_pressure;Samples;Min_cycle;Max_cycle;Signal;HPM_P1;HPM_P2
2023/10/30 00:00:08;;;;;;;;;;;;;;;;;;2218784;58;1900;-82
2023/10/30 00:02:40;;;;;;;;;;;;;;;;;;2224712;58;1616;-82
2023/10/30 00:05:11;;;;;;;;;;;;;;;;;;2234946;58;1946;-82
2023/10/30 00:07:46;;;;;;;;;;;;;;;;;;2231854;66;1250;-82
2023/10/30 00:10:19;;;;;;;;;;;;;;;;;;2235177;59;1082;-82
2023/10/30 00:12:51;;;;;;;;;;;;;;;;;;2233640;58;1815;-82
2023/10/30 00:15:23;;;;;;;;;;;;;;;;;;2236491;58;1168;-82
2023/10/30 00:17:56;;;;;;;;;;;;;;;;;;2233485;58;1538;-82
2023/10/30 00:20:26;;;;;;;;;;;;;;;;;;2226213;59;1973;-82
2023/10/30 00:22:58;;;;;;;;;;;;;;;;;;2230305;66;1520;-82
2023/10/30 00:25:29;;;;;;;;;;;;;;;;;;2226443;58;2135;-82
2023/10/30 00:28:00;;;;;;;;;;;;;;;;;;2222749;58;2772;-82
2023/10/30 00:30:30;;;;;;;;;;;;;;;;;;2227298;58;2414;-82
2023/10/30 00:33:02;;;;;;;;;;;;;;;;;;2220047;59;2106;-82
2023/10/30 00:35:32;;;;;;;;;;;;;;;;;;2223873;58;1843;-83
2023/10/30 00:38:03;;;;;;;;;;;;;;;;;;2226555;58;2071;-83
2023/10/30 00:40:33;;;;;;;;;;;;;;;;;;2223848;58;1672;-82
2023/10/30 00:43:04;;;;;;;;;;;;;;;;;;2226563;58;2060;-82
2023/10/30 00:45:35;;;;;;;;;;;;;;;;;;2227126;58;1942;-82
2023/10/30 00:48:08;;;;;;;;;;;;;;;;;;2224640;58;1895;-82
2023/10/30 00:50:38;;;;;;;;;;;;;;;;;;2227606;58;1693;-83
2023/10/30 00:53:10;;;;;;;;;;;;;;;;;;2226623;66;1253;-82
2023/10/30 00:55:43;;;;;;;;;;;;;;;;;;2224878;66;1109;-82
2023/10/30 00:58:14;;;;;;;;;;;;;;;;;;2227005;66;1164;-84
2023/10/30 01:00:44;;;;;;;;;;;;;;;;;;2228457;66;1495;-82
2023/10/30 01:03:15;;;;;;;;;;;;;;;;;;2226869;58;2276;-82
2023/10/30 01:05:54;;;;;;;;;;;;;;;;;;2223364;66;2007;-82
2023/10/30 01:08:27;;;;;;;;;;;;;;;;;;2219809;66;1535;-82
2023/10/30 01:10:59;;;;;;;;;;;;;;;;;;2224679;58;1728;-82
2023/10/30 01:13:32;;;;;;;;;;;;;;;;;;2223243;66;1125;-82
2023/10/30 01:16:05;;;;;;;;;;;;;;;;;;2226984;66;1464;-83
2023/10/30 01:18:37;;;;;;;;;;;;;;;;;;2228164;66;1255;-83
2023/10/30 01:21:14;;;;;;;;;;;;;;;;;;2227739;66;1170;-83
2023/10/30 01:23:44;;;;;;;;;;;;;;;;;;2223334;66;1908;-82
2023/10/30 01:26:14;;;;;;;;;;;;;;;;;;2224280;58;2394;-83
2023/10/30 01:28:48;;;;;;;;;;;;;;;;;;2227820;58;2716;-82
2023/10/30 01:31:21;;;;;;;;;;;;;;;;;;2226010;58;1544;-82
2023/10/30 01:33:54;;;;;;;;;;;;;;;;;;2224030;58;2075;-82
2023/10/30 01:36:24;;;;;;;;;;;;;;;;;;2222686;66;1907;-83
2023/10/30 01:38:55;;;;;;;;;;;;;;;;;;2227259;58;1540;-82
2023/10/30 01:41:25;;;;;;;;;;;;;;;;;;2222330;58;2425;-82
2023/10/30 01:43:55;;;;;;;;;;;;;;;;;;2228806;58;1690;-82
2023/10/30 01:46:26;;;;;;;;;;;;;;;;;;2224946;58;2303;-83
2023/10/30 01:48:58;;;;;;;;;;;;;;;;;;2231406;58;1670;-82
2023/10/30 01:51:30;;;;;;;;;;;;;;;;;;2232321;58;2138;-82
2023/10/30 01:54:04;;;;;;;;;;;;;;;;;;2229972;66;1436;-82
2023/10/30 01:56:38;;;;;;;;;;;;;;;;;;2229583;58;1261;-82
2023/10/30 01:59:16;;;;;;;;;;;;;;;;;;2235642;58;2390;-82
2023/10/30 02:01:46;;;;;;;;;;;;;;;;;;2231400;59;1609;-82
2023/10/30 02:04:20;;;;;;;;;;;;;;;;;;2229368;58;1450;-82
2023/10/30 02:06:54;;;;;;;;;;;;;;;;;;2230335;59;1959;-82
2023/10/30 02:09:25;;;;;;;;;;;;;;;;;;2231190;59;1080;-82
2023/10/30 02:12:01;;;;;;;;;;;;;;;;;;2226420;66;1245;-82
2023/10/30 02:14:31;;;;;;;;;;;;;;;;;;2227810;66;1127;-82
2023/10/30 02:17:08;;;;;;;;;;;;;;;;;;2235149;58;1685;-81
2023/10/30 02:19:45;;;;;;;;;;;;;;;;;;2232034;66;1247;-82
2023/10/30 02:22:27;;;;;;;;;;;;;;;;;;2226005;66;1175;-82
2023/10/30 02:24:59;;;;;;;;;;;;;;;;;;2232123;66;1386;-82
2023/10/30 02:27:32;;;;;;;;;;;;;;;;;;2224316;58;2397;-82
2023/10/30 02:30:02;;;;;;;;;;;;;;;;;;2221950;58;2509;-82
2023/10/30 02:32:32;;;;;;;;;;;;;;;;;;2219669;58;2403;-82
2023/10/30 02:35:03;;;;;;;;;;;;;;;;;;2218616;59;1649;-82
2023/10/30 02:37:35;;;;;;;;;;;;;;;;;;2220816;58;2097;-82
2023/10/30 02:40:05;;;;;;;;;;;;;;;;;;2221902;58;1977;-82
2023/10/30 02:42:38;;;;;;;;;;;;;;;;;;2219854;59;2391;-83
2023/10/30 02:45:12;;;;;;;;;;;;;;;;;;2219270;59;2559;-82
2023/10/30 02:47:42;;;;;;;;;;;;;;;;;;2220643;66;1780;-82
2023/10/30 02:50:12;;;;;;;;;;;;;;;;;;2219711;59;2951;-82
2023/10/30 02:52:43;;;;;;;;;;;;;;;;;;2221028;58;1700;-82
2023/10/30 02:55:13;;;;;;;;;;;;;;;;;;2220645;58;2492;-82
2023/10/30 02:57:44;;;;;;;;;;;;;;;;;;2221629;58;2055;-83
2023/10/30 03:00:14;;;;;;;;;;;;;;;;;;2220829;58;1868;-82
2023/10/30 03:02:45;;;;;;;;;;;;;;;;;;2220461;59;1618;-82
2023/10/30 03:05:15;;;;;;;;;;;;;;;;;;2219837;58;1975;-82
2023/10/30 03:07:45;;;;;;;;;;;;;;;;;;2221561;58;1751;-82
2023/10/30 03:10:19;;;;;;;;;;;;;;;;;;2220714;58;2044;-82
2023/10/30 03:12:50;;;;;;;;;;;;;;;;;;2222196;58;1750;-83
2023/10/30 03:15:20;;;;;;;;;;;;;;;;;;2221355;59;1843;-83
2023/10/30 03:17:50;;;;;;;;;;;;;;;;;;2221580;59;1565;-82
2023/10/30 03:20:20;;;;;;;;;;;;;;;;;;2221118;66;1909;-83
2023/10/30 03:22:51;;;;;;;;;;;;;;;;;;2222543;59;1749;-82
2023/10/30 03:25:22;;;;;;;;;;;;;;;;;;2217845;59;1979;-82
2023/10/30 03:27:52;;;;;;;;;;;;;;;;;;2224263;58;2110;-83
2023/10/30 03:30:22;;;;;;;;;;;;;;;;;;2224572;58;2565;-82
2023/10/30 03:32:54;;;;;;;;;;;;;;;;;;2225597;58;1542;-82
2023/10/30 03:35:24;;;;;;;;;;;;;;;;;;2225489;59;1706;-82
2023/10/30 03:37:54;;;;;;;;;;;;;;;;;;2226025;58;1805;-81
2023/10/30 03:40:26;;;;;;;;;;;;;;;;;;2218081;58;2297;-82
2023/10/30 03:42:56;;;;;;;;;;;;;;;;;;2222834;58;2012;-83
2023/10/30 03:45:26;;;;;;;;;;;;;;;;;;2218025;58;1917;-82
2023/10/30 03:47:58;;;;;;;;;;;;;;;;;;2227023;58;1875;-83
2023/10/30 03:50:29;;;;;;;;;;;;;;;;;;2223942;58;2155;-82
2023/10/30 03:53:00;;;;;;;;;;;;;;;;;;2226316;58;1960;-82
2023/10/30 03:55:30;;;;;;;;;;;;;;;;;;2225007;58;2720;-83
2023/10/30 03:58:03;;;;;;;;;;;;;;;;;;2226074;59;1834;-83
2023/10/30 04:00:33;;;;;;;;;;;;;;;;;;2224489;58;1766;-82
2023/10/30 04:03:10;;;;;;;;;;;;;;;;;;2226506;66;1595;-82
2023/10/30 04:05:41;;;;;;;;;;;;;;;;;;2222052;58;1974;-82
2023/10/30 04:08:11;;;;;;;;;;;;;;;;;;2224046;58;1584;-82
2023/10/30 04:10:41;;;;;;;;;;;;;;;;;;2221456;59;1640;-82
2023/10/30 04:13:11;;;;;;;;;;;;;;;;;;2225249;58;2451;-82
2023/10/30 04:15:41;;;;;;;;;;;;;;;;;;2224800;58;1851;-82
2023/10/30 04:18:13;;;;;;;;;;;;;;;;;;2225436;58;1752;-82
2023/10/30 04:20:46;;;;;;;;;;;;;;;;;;2221788;58;2492;-83
2023/10/30 04:23:17;;;;;;;;;;;;;;;;;;2226277;58;1658;-83
2023/10/30 04:25:47;;;;;;;;;;;;;;;;;;2227049;58;2156;-83
2023/10/30 04:28:17;;;;;;;;;;;;;;;;;;2221359;58;1667;-83
2023/10/30 04:30:47;;;;;;;;;;;;;;;;;;2222847;58;3031;-82
2023/10/30 04:33:18;;;;;;;;;;;;;;;;;;2222348;58;2622;-83
2023/10/30 04:35:49;;;;;;;;;;;;;;;;;;2223602;58;2155;-82
2023/10/30 04:38:24;;;;;;;;;;;;;;;;;;2222880;66;3486;-82
2023/10/30 04:40:54;;;;;;;;;;;;;;;;;;2223103;58;1969;-82
2023/10/30 04:43:26;;;;;;;;;;;;;;;;;;2222210;59;1652;-83
2023/10/30 04:45:56;;;;;;;;;;;;;;;;;;2221917;58;1986;-83
2023/10/30 04:48:29;;;;;;;;;;;;;;;;;;2218104;59;2492;-83
2023/10/30 04:50:59;;;;;;;;;;;;;;;;;;2220319;59;1483;-82
2023/10/30 04:53:30;;;;;;;;;;;;;;;;;;2221210;58;1573;-82
2023/10/30 04:56:02;;;;;;;;;;;;;;;;;;2222334;58;1751;-82
2023/10/30 04:58:33;;;;;;;;;;;;;;;;;;2218158;58;2979;-82
2023/10/30 05:01:09;;;;;;;;;;;;;;;;;;2217072;58;1733;-83
2023/10/30 05:03:39;;;;;;;;;;;;;;;;;;2219749;59;1661;-83
2023/10/30 05:06:09;;;;;;;;;;;;;;;;;;2222167;58;2585;-83
2023/10/30 05:08:40;;;;;;;;;;;;;;;;;;2220106;58;1809;-82
2023/10/30 05:11:10;;;;;;;;;;;;;;;;;;2223172;58;1728;-82
2023/10/30 05:13:40;;;;;;;;;;;;;;;;;;2222543;58;1763;-82
2023/10/30 05:16:10;;;;;;;;;;;;;;;;;;2219132;59;1929;-83
2023/10/30 05:18:41;;;;;;;;;;;;;;;;;;2223277;58;1683;-82
2023/10/30 05:21:11;;;;;;;;;;;;;;;;;;2222792;58;1697;-82
2023/10/30 05:23:41;;;;;;;;;;;;;;;;;;2220878;58;1809;-83
2023/10/30 05:26:11;;;;;;;;;;;;;;;;;;2221961;58;1924;-83
2023/10/30 05:28:42;;;;;;;;;;;;;;;;;;2222783;59;1820;-82
2023/10/30 05:31:12;;;;;;;;;;;;;;;;;;2219571;58;2137;-82
2023/10/30 05:33:43;;;;;;;;;;;;;;;;;;2224909;58;2013;-82
2023/10/30 05:36:13;;;;;;;;;;;;;;;;;;2223387;59;2436;-82
2023/10/30 05:38:43;;;;;;;;;;;;;;;;;;2219362;58;2065;-82
2023/10/30 05:41:14;;;;;;;;;;;;;;;;;;2221565;58;1486;-82
2023/10/30 05:43:44;;;;;;;;;;;;;;;;;;2215237;58;1744;-82
2023/10/30 05:46:14;;;;;;;;;;;;;;;;;;2223302;58;1997;-83
2023/10/30 05:48:45;;;;;;;;;;;;;;;;;;2218558;58;1562;-82
2023/10/30 05:51:15;;;;;;;;;;;;;;;;;;2223051;58;1515;-82
2023/10/30 05:53:47;;;;;;;;;;;;;;;;;;2217466;58;2057;-82
2023/10/30 05:56:17;;;;;;;;;;;;;;;;;;2220529;59;1805;-83
2023/10/30 05:58:47;;;;;;;;;;;;;;;;;;2219503;58;1822;-82
2023/10/30 06:01:18;;;;;;;;;;;;;;;;;;2216164;59;1783;-82
2023/10/30 06:03:49;;;;;;;;;;;;;;;;;;2214998;58;2291;-82
2023/10/30 06:06:20;;;;;;;;;;;;;;;;;;2216773;59;1996;-82
2023/10/30 06:08:50;;;;;;;;;;;;;;;;;;2216637;58;1799;-83
2023/10/30 06:11:20;;;;;;;;;;;;;;;;;;2215775;59;1574;-83
2023/10/30 06:13:51;;;;;;;;;;;;;;;;;;2216643;58;2258;-82
2023/10/30 06:16:21;;;;;;;;;;;;;;;;;;2221374;58;1877;-82
2023/10/30 06:18:51;;;;;;;;;;;;;;;;;;2217401;59;1812;-82
2023/10/30 06:21:22;;;;;;;;;;;;;;;;;;2230374;58;2042;-82
2023/10/30 06:23:52;;;;;;;;;;;;;;;;;;2232572;58;2601;-82
2023/10/30 06:26:22;;;;;;;;;;;;;;;;;;2226049;58;1924;-82
2023/10/30 06:28:53;;;;;;;;;;;;;;;;;;2233800;58;2067;-82
2023/10/30 06:31:23;;;;;;;;;;;;;;;;;;2232222;58;2060;-81
2023/10/30 06:33:54;;;;;;;;;;;;;;;;;;2229797;58;2428;-82
2023/10/30 06:36:26;;;;;;;;;;;;;;;;;;2230919;58;2287;-82
2023/10/30 06:38:57;;;;;;;;;;;;;;;;;;2225887;58;2133;-82
2023/10/30 06:41:27;;;;;;;;;;;;;;;;;;2223184;58;1755;-81
2023/10/30 06:43:57;;;;;;;;;;;;;;;;;;2226005;58;1748;-83
2023/10/30 06:46:27;;;;;;;;;;;;;;;;;;2223568;58;2246;-82
2023/10/30 06:48:57;;;;;;;;;;;;;;;;;;2225498;59;1895;-82
2023/10/30 06:51:28;;;;;;;;;;;;;;;;;;2223222;58;1783;-83
2023/10/30 06:53:58;;;;;;;;;;;;;;;;;;2221820;58;2789;-83
2023/10/30 06:56:28;;;;;;;;;;;;;;;;;;2222944;58;3029;-82
2023/10/30 06:58:58;;;;;;;;;;;;;;;;;;2223014;59;2129;-83
2023/10/30 07:01:38;;;;;;;;;;;;;;;;;;2220598;58;2435;-82
2023/10/30 07:04:10;;;;;;;;;;;;;;;;;;2225831;66;1973;-83
2023/10/30 07:06:41;;;;;;;;;;;;;;;;;;2220025;59;1965;-83
2023/10/30 07:09:12;;;;;;;;;;;;;;;;;;2224584;58;1837;-83
2023/10/30 07:11:43;;;;;;;;;;;;;;;;;;2217176;66;2364;-83
2023/10/30 07:14:13;;;;;;;;;;;;;;;;;;2221150;58;1963;-83
2023/10/30 07:16:43;;;;;;;;;;;;;;;;;;2221265;58;1916;-84
2023/10/30 07:19:15;;;;;;;;;;;;;;;;;;2222312;59;2695;-83
2023/10/30 07:21:45;;;;;;;;;;;;;;;;;;2224734;58;1901;-84
2023/10/30 07:24:16;;;;;;;;;;;;;;;;;;2225998;59;1773;-83
2023/10/30 07:26:46;;;;;;;;;;;;;;;;;;2221446;58;1927;-83
2023/10/30 07:29:16;;;;;;;;;;;;;;;;;;2226887;58;1900;-83
2023/10/30 07:31:49;;;;;;;;;;;;;;;;;;2220325;58;2021;-83
2023/10/30 07:34:21;;;;;;;;;;;;;;;;;;2219670;66;2316;-83
2023/10/30 07:36:52;;;;;;;;;;;;;;;;;;2225501;59;1817;-83
2023/10/30 07:39:22;;;;;;;;;;;;;;;;;;2225295;58;1866;-83
2023/10/30 07:41:52;;;;;;;;;;;;;;;;;;2224697;58;2165;-83
2023/10/30 07:44:22;;;;;;;;;;;;;;;;;;2227407;58;1998;-84
2023/10/30 07:46:53;;;;;;;;;;;;;;;;;;2219706;58;1944;-83
2023/10/30 07:49:24;;;;;;;;;;;;;;;;;;2225427;58;2290;-84
2023/10/30 07:51:55;;;;;;;;;;;;;;;;;;2225240;58;2005;-83
2023/10/30 07:54:26;;;;;;;;;;;;;;;;;;2221576;58;2020;-83
2023/10/30 07:56:56;;;;;;;;;;;;;;;;;;2223296;66;3229;-83
2023/10/30 07:59:27;;;;;;;;;;;;;;;;;;2221930;66;3012;-83
2023/10/30 08:01:57;;;;;;;;;;;;;;;;;;2227649;58;1906;-83
2023/10/30 08:04:27;;;;;;;;;;;;;;;;;;2226402;58;3646;-83
2023/10/30 08:06:57;;;;;;;;;;;;;;;;;;2223043;59;2727;-83
2023/10/30 08:09:27;;;;;;;;;;;;;;;;;;2223279;58;2677;-83
2023/10/30 08:11:58;;;;;;;;;;;;;;;;;;2225276;58;3413;-83
2023/10/30 08:14:28;;;;;;;;;;;;;;;;;;2226212;66;2357;-83
2023/10/30 08:17:00;;;;;;;;;;;;;;;;;;2226170;58;2813;-83
2023/10/30 08:19:30;;;;;;;;;;;;;;;;;;2223457;58;2261;-84
2023/10/30 08:22:00;;;;;;;;;;;;;;;;;;2223790;66;2821;-83
2023/10/30 08:24:31;;;;;;;;;;;;;;;;;;2226942;59;2854;-83
2023/10/30 08:27:01;;;;;;;;;;;;;;;;;;2226445;58;2536;-82
2023/10/30 08:29:31;;;;;;;;;;;;;;;;;;2224048;58;2851;-82
2023/10/30 08:32:02;;;;;;;;;;;;;;;;;;2225038;66;2505;-82
2023/10/30 08:34:32;;;;;;;;;;;;;;;;;;2222142;58;4322;-82
2023/10/30 08:37:02;;;;;;;;;;;;;;;;;;2224163;58;3411;-82
2023/10/30 08:39:33;;;;;;;;;;;;;;;;;;2228256;53;3548;-21
2023/10/30 08:42:03;;;;;;;;;;;;;;;;;;2201534;59;2524;-20
2023/10/30 08:44:34;;;;;;;;;;;;;;;;;;2205621;59;2901;-22
2023/10/30 08:47:05;;;;;;;;;;;;;;;;;;2205333;59;2947;-22
2023/10/30 08:49:35;;;;;;;;;;;;;;;;;;2202593;59;3730;-20
2023/10/30 08:52:06;;;;;;;;;;;;;;;;;;2200351;59;2868;-22
2023/10/30 08:54:36;;;;;;;;;;;;;;;;;;2198462;59;2704;-22
2023/10/30 08:57:06;;;;;;;;;;;;;;;;;;2204624;59;2214;-22
2023/10/30 08:59:38;;;;;;;;;;;;;;;;;;2199936;59;2859;-22
2023/10/30 09:02:08;;;;;;;;;;;;;;;;;;2204135;59;2926;-22
2023/10/30 09:04:38;;;;;;;;;;;;;;;;;;2202712;59;3772;-23
2023/10/30 09:07:09;;;;;;;;;;;;;;;;;;2203315;59;3808;-22
2023/10/30 09:09:39;;;;;;;;;;;;;;;;;;2198387;59;2933;-20
2023/10/30 09:12:09;;;;;;;;;;;;;;;;;;2204117;59;2563;-22
2023/10/30 09:14:40;;;;;;;;;;;;;;;;;;2203746;67;3505;-19
2023/10/30 09:17:10;;;;;;;;;;;;;;;;;;2200566;59;4344;-19
2023/10/30 09:19:40;;;;;;;;;;;;;;;;;;2203173;67;2791;-20
2023/10/30 09:22:10;;;;;;;;;;;;;;;;;;2200984;59;2919;-22
2023/10/30 09:24:41;;;;;;;;;;;;;;;;;;2204345;67;2908;-23
2023/10/30 09:27:11;;;;;;;;;;;;;;;;;;2205227;67;2847;-19
2023/10/30 09:29:42;;;;;;;;;;;;;;;;;;2200984;59;3896;-22
2023/10/30 09:32:14;;;;;;;;;;;;;;;;;;2203830;67;3087;-19
2023/10/30 09:34:44;;;;;;;;;;;;;;;;;;2202506;59;3918;-21
2023/10/30 09:37:15;;;;;;;;;;;;;;;;;;2204124;59;2785;-19
2023/10/30 09:39:46;;;;;;;;;;;;;;;;;;2203477;59;3301;-20
2023/10/30 09:42:17;;;;;;;;;;;;;;;;;;2199563;59;4272;-20
2023/10/30 09:44:48;;;;;;;;;;;;;;;;;;2204108;59;2807;-22
2023/10/30 09:47:19;;;;;;;;;;;;;;;;;;2201813;59;2873;-20
2023/10/30 09:49:50;;;;;;;;;;;;;;;;;;2202507;59;3702;-23
2023/10/30 09:52:21;;;;;;;;;;;;;;;;;;2205148;59;2293;-22
2023/10/30 09:54:51;;;;;;;;;;;;;;;;;;2203480;67;2945;-23
2023/10/30 09:57:22;;;;;;;;;;;;;;;;;;2204986;59;1874;-22
2023/10/30 09:59:54;;;;;;;;;;;;;;;;;;2203992;59;2651;-22
2023/10/30 10:02:25;;;;;;;;;;;;;;;;;;2201086;59;2794;-21
2023/10/30 10:04:56;;;;;;;;;;;;;;;;;;2199064;59;4189;-21
2023/10/30 10:07:26;;;;;;;;;;;;;;;;;;2201249;59;2946;-19
2023/10/30 10:09:58;;;;;;;;;;;;;;;;;;2196306;59;3812;-22
2023/10/30 10:12:29;;;;;;;;;;;;;;;;;;2201206;59;1761;-22
2023/10/30 10:15:03;;;;;;;;;;;;;;;;;;2203534;59;2717;-22
2023/10/30 10:17:40;;;;;;;;;;;;;;;;;;2200901;59;3093;-22
2023/10/30 10:20:11;;;;;;;;;;;;;;;;;;2204217;59;4451;-22
2023/10/30 10:22:41;;;;;;;;;;;;;;;;;;2202664;59;4185;-21
2023/10/30 10:25:15;;;;;;;;;;;;;;;;;;2204782;59;2584;-21
2023/10/30 10:27:48;;;;;;;;;;;;;;;;;;2203127;59;2377;-21
2023/10/30 10:30:22;;;;;;;;;;;;;;;;;;2200308;67;4691;-22
2023/10/30 10:32:53;;;;;;;;;;;;;;;;;;2201760;59;2763;-22
2023/10/30 10:35:24;;;;;;;;;;;;;;;;;;2200067;59;2185;-22
2023/10/30 10:38:16;;;;;;;;;;;;;;;;;;2202841;59;2801;-22
2023/10/30 10:40:48;;;;;;;;;;;;;;;;;;2199491;59;2844;-22
2023/10/30 10:43:19;;;;;;;;;;;;;;;;;;2204201;59;3887;-21
2023/10/30 10:45:51;;;;;;;;;;;;;;;;;;2203883;59;3437;-21
2023/10/30 10:48:26;;;;;;;;;;;;;;;;;;2201729;67;3947;-21
2023/10/30 10:51:00;;;;;;;;;;;;;;;;;;2198393;59;2641;-21
2023/10/30 10:53:33;;;;;;;;;;;;;;;;;;2201516;67;2668;-21
2023/10/30 10:56:05;;;;;;;;;;;;;;;;;;2197565;67;4577;-22
2023/10/30 10:58:41;;;;;;;;;;;;;;;;;;2203648;67;2593;-22
2023/10/30 11:01:16;;;;;;;;;;;;;;;;;;2203592;67;3727;-22
2023/10/30 11:03:48;;;;;;;;;;;;;;;;;;2203862;59;2556;-22
2023/10/30 11:06:21;;;;;;;;;;;;;;;;;;2203916;67;4193;-21
2023/10/30 11:08:59;;;;;;;;;;;;;;;;;;2203800;67;3871;-21
2023/10/30 11:11:35;;;;;;;;;;;;;;;;;;2204052;67;2729;-21
2023/10/30 11:14:21;;;;;;;;;;;;;;;;;;2202684;59;3702;-21
2023/10/30 11:17:05;;;;;;;;;;;;;;;;;;2203677;67;2540;-20
2023/10/30 11:19:38;;;;;;;;;;;;;;;;;;2201203;67;2529;-21
2023/10/30 11:22:09;;;;;;;;;;;;;;;;;;2200244;59;2801;-21
2023/10/30 11:24:40;;;;;;;;;;;;;;;;;;2200152;60;3679;-22
2023/10/30 11:27:26;;;;;;;;;;;;;;;;;;2200592;59;3386;-22
2023/10/30 11:29:57;;;;;;;;;;;;;;;;;;2202362;59;4196;-22
2023/10/30 11:32:33;;;;;;;;;;;;;;;;;;2200080;59;2562;-20
2023/10/30 11:35:04;;;;;;;;;;;;;;;;;;2197176;59;4036;-21
2023/10/30 11:37:35;;;;;;;;;;;;;;;;;;2200843;59;5361;-22
2023/10/30 11:40:09;;;;;;;;;;;;;;;;;;2203560;59;2696;-22
2023/10/30 11:42:43;;;;;;;;;;;;;;;;;;2199909;59;2898;-23
2023/10/30 11:45:14;;;;;;;;;;;;;;;;;;2203774;59;2343;-21
2023/10/30 11:47:46;;;;;;;;;;;;;;;;;;2203862;59;2892;-21
2023/10/30 11:50:17;;;;;;;;;;;;;;;;;;2204373;59;4900;-21
2023/10/30 11:52:50;;;;;;;;;;;;;;;;;;2203887;67;3258;-21
2023/10/30 11:55:21;;;;;;;;;;;;;;;;;;2204795;59;2919;-21
2023/10/30 11:57:52;;;;;;;;;;;;;;;;;;2200712;67;2863;-21
2023/10/30 12:00:22;;;;;;;;;;;;;;;;;;2201692;67;3362;-21
2023/10/30 12:02:54;;;;;;;;;;;;;;;;;;2198445;59;2473;-21
2023/10/30 12:05:25;;;;;;;;;;;;;;;;;;2204862;67;2813;-20
2023/10/30 12:07:56;;;;;;;;;;;;;;;;;;2196564;67;2415;-22
2023/10/30 12:10:27;;;;;;;;;;;;;;;;;;2205190;67;2517;-21
2023/10/30 12:12:57;;;;;;;;;;;;;;;;;;2203187;59;2716;-21
2023/10/30 12:15:28;;;;;;;;;;;;;;;;;;2205114;59;2349;-21
2023/10/30 12:17:58;;;;;;;;;;;;;;;;;;2203624;59;3469;-21
2023/10/30 12:20:28;;;;;;;;;;;;;;;;;;2204108;59;2853;-21
2023/10/30 12:22:59;;;;;;;;;;;;;;;;;;2203839;59;3585;-22
2023/10/30 12:25:30;;;;;;;;;;;;;;;;;;2201662;59;2446;-21
2023/10/30 12:28:01;;;;;;;;;;;;;;;;;;2204287;59;3104;-22
2023/10/30 12:30:34;;;;;;;;;;;;;;;;;;2201218;59;3045;-21
2023/10/30 12:33:05;;;;;;;;;;;;;;;;;;2203844;67;3791;-21
2023/10/30 12:35:38;;;;;;;;;;;;;;;;;;2198234;67;3389;-21
2023/10/30 12:38:15;;;;;;;;;;;;;;;;;;2198837;59;3277;-21
2023/10/30 12:40:45;;;;;;;;;;;;;;;;;;2203812;59;3758;-21
2023/10/30 12:43:16;;;;;;;;;;;;;;;;;;2201158;59;4324;-21
2023/10/30 12:45:46;;;;;;;;;;;;;;;;;;2200437;67;2754;-21
2023/10/30 12:48:17;;;;;;;;;;;;;;;;;;2204416;59;4463;-21
2023/10/30 12:50:47;;;;;;;;;;;;;;;;;;2200216;59;2786;-22
2023/10/30 12:53:17;;;;;;;;;;;;;;;;;;2201121;67;2440;-21
2023/10/30 12:55:49;;;;;;;;;;;;;;;;;;2203371;59;3542;-21
2023/10/30 12:58:20;;;;;;;;;;;;;;;;;;2204870;59;4241;-21
2023/10/30 13:00:50;;;;;;;;;;;;;;;;;;2203039;59;2693;-21
2023/10/30 13:03:20;;;;;;;;;;;;;;;;;;2201737;59;3715;-22
2023/10/30 13:05:51;;;;;;;;;;;;;;;;;;2198014;59;2005;-22
2023/10/30 13:08:21;;;;;;;;;;;;;;;;;;2200869;67;2729;-21
2023/10/30 13:10:52;;;;;;;;;;;;;;;;;;2202891;59;3958;-22
2023/10/30 13:13:22;;;;;;;;;;;;;;;;;;2204238;59;3623;-22
2023/10/30 13:15:53;;;;;;;;;;;;;;;;;;2200952;59;3933;-22
2023/10/30 13:18:23;;;;;;;;;;;;;;;;;;2204702;59;3949;-22
2023/10/30 13:20:53;;;;;;;;;;;;;;;;;;2196520;59;2880;-21
2023/10/30 13:23:24;;;;;;;;;;;;;;;;;;2204352;59;2199;-21
2023/10/30 13:25:54;;;;;;;;;;;;;;;;;;2199726;59;3750;-22
2023/10/30 13:28:24;;;;;;;;;;;;;;;;;;2200930;59;4024;-27
2023/10/30 13:30:55;;;;;;;;;;;;;;;;;;2199657;59;4281;-22
2023/10/30 13:33:26;;;;;;;;;;;;;;;;;;2200133;59;2563;-22
2023/10/30 13:35:56;;;;;;;;;;;;;;;;;;2200351;59;3692;-21
2023/10/30 13:38:27;;;;;;;;;;;;;;;;;;2197511;59;2800;-21
2023/10/30 13:40:59;;;;;;;;;;;;;;;;;;2202497;59;3994;-22
2023/10/30 13:43:29;;;;;;;;;;;;;;;;;;2204266;59;3049;-22
2023/10/30 13:46:00;;;;;;;;;;;;;;;;;;2200823;59;2732;-21
2023/10/30 13:48:30;;;;;;;;;;;;;;;;;;2200381;59;1920;-22
2023/10/30 13:51:01;;;;;;;;;;;;;;;;;;2196922;59;2858;-21
2023/10/30 13:53:32;;;;;;;;;;;;;;;;;;2204738;59;2482;-22
2023/10/30 13:56:03;;;;;;;;;;;;;;;;;;2201646;59;4158;-22
2023/10/30 13:58:33;;;;;;;;;;;;;;;;;;2200344;59;3218;-21
2023/10/30 14:01:04;;;;;;;;;;;;;;;;;;2197627;59;3338;-21
2023/10/30 14:03:34;;;;;;;;;;;;;;;;;;2202789;59;2685;-21
2023/10/30 14:06:04;;;;;;;;;;;;;;;;;;2201079;59;2646;-22
2023/10/30 14:08:35;;;;;;;;;;;;;;;;;;2204592;59;2844;-21
2023/10/30 14:11:05;;;;;;;;;;;;;;;;;;2202756;59;2850;-22
2023/10/30 14:13:35;;;;;;;;;;;;;;;;;;2205258;59;2974;-22
2023/10/30 14:16:06;;;;;;;;;;;;;;;;;;2203252;59;2486;-21
2023/10/30 14:18:36;;;;;;;;;;;;;;;;;;2204970;67;2369;-22
2023/10/30 14:21:07;;;;;;;;;;;;;;;;;;2196239;59;5020;-21
2023/10/30 14:23:37;;;;;;;;;;;;;;;;;;2203555;59;3689;-22
2023/10/30 14:26:07;;;;;;;;;;;;;;;;;;2202320;59;2549;-22
2023/10/30 14:28:38;;;;;;;;;;;;;;;;;;2197207;67;2414;-22
2023/10/30 14:31:08;;;;;;;;;;;;;;;;;;2201540;59;2962;-21
2023/10/30 14:33:38;;;;;;;;;;;;;;;;;;2202829;59;2498;-22
2023/10/30 14:36:09;;;;;;;;;;;;;;;;;;2201888;59;3095;-21
2023/10/30 14:38:39;;;;;;;;;;;;;;;;;;2200535;59;3145;-22
2023/10/30 14:41:09;;;;;;;;;;;;;;;;;;2200620;59;3768;-21
2023/10/30 14:43:40;;;;;;;;;;;;;;;;;;2203766;59;2403;-22
2023/10/30 14:46:10;;;;;;;;;;;;;;;;;;2201649;59;2450;-21
2023/10/30 14:48:40;;;;;;;;;;;;;;;;;;2203555;59;3083;-21
2023/10/30 14:51:11;;;;;;;;;;;;;;;;;;2200895;59;2513;-21
2023/10/30 14:53:42;;;;;;;;;;;;;;;;;;2195136;59;4352;-22
2023/10/30 14:56:12;;;;;;;;;;;;;;;;;;2200576;59;3971;-21
2023/10/30 14:58:42;;;;;;;;;;;;;;;;;;2204505;59;1769;-21
2023/10/30 15:01:12;;;;;;;;;;;;;;;;;;2202627;59;3659;-21
2023/10/30 15:03:43;;;;;;;;;;;;;;;;;;2204224;59;2441;-21
2023/10/30 15:06:14;;;;;;;;;;;;;;;;;;2203360;59;2667;-21
2023/10/30 15:08:44;;;;;;;;;;;;;;;;;;2203196;67;3922;-21
2023/10/30 15:11:14;;;;;;;;;;;;;;;;;;2203817;59;3935;-20
2023/10/30 15:13:45;;;;;;;;;;;;;;;;;;2203860;67;3854;-21
2023/10/30 15:16:15;;;;;;;;;;;;;;;;;;2200371;67;2886;-22
2023/10/30 15:18:46;;;;;;;;;;;;;;;;;;2201259;67;2540;-21
2023/10/30 15:21:17;;;;;;;;;;;;;;;;;;2200320;59;2946;-20
2023/10/30 15:23:47;;;;;;;;;;;;;;;;;;2200141;59;2622;-21
2023/10/30 15:26:18;;;;;;;;;;;;;;;;;;2202323;59;3968;-21
2023/10/30 15:28:48;;;;;;;;;;;;;;;;;;2204141;59;3600;-21
2023/10/30 15:31:19;;;;;;;;;;;;;;;;;;2199643;59;3382;-21
2023/10/30 15:33:49;;;;;;;;;;;;;;;;;;2197744;59;3842;-20
2023/10/30 15:36:20;;;;;;;;;;;;;;;;;;2203048;59;3086;-21
2023/10/30 15:38:50;;;;;;;;;;;;;;;;;;2196942;59;3334;-22
2023/10/30 15:41:20;;;;;;;;;;;;;;;;;;2202352;59;2699;-21
2023/10/30 15:43:50;;;;;;;;;;;;;;;;;;2204420;59;3715;-21
2023/10/30 15:46:21;;;;;;;;;;;;;;;;;;2203140;59;4119;-21
2023/10/30 15:48:53;;;;;;;;;;;;;;;;;;2201073;67;3127;-21
2023/10/30 15:51:24;;;;;;;;;;;;;;;;;;2200256;67;3338;-21
2023/10/30 15:53:54;;;;;;;;;;;;;;;;;;2202669;67;4951;-23
2023/10/30 15:56:24;;;;;;;;;;;;;;;;;;2203504;67;2857;-22
2023/10/30 15:58:55;;;;;;;;;;;;;;;;;;2203003;59;2985;-22
2023/10/30 16:01:25;;;;;;;;;;;;;;;;;;2203573;59;3117;-21
2023/10/30 16:03:56;;;;;;;;;;;;;;;;;;2203767;59;4451;-21
2023/10/30 16:06:28;;;;;;;;;;;;;;;;;;2203780;59;2948;-22
2023/10/30 16:08:58;;;;;;;;;;;;;;;;;;2202921;59;4211;-21
2023/10/30 16:11:29;;;;;;;;;;;;;;;;;;2204794;59;3497;-21
2023/10/30 16:13:59;;;;;;;;;;;;;;;;;;2197385;59;2545;-22
2023/10/30 16:16:29;;;;;;;;;;;;;;;;;;2204921;59;2813;-23
2023/10/30 16:19:00;;;;;;;;;;;;;;;;;;2202487;59;3083;-21
2023/10/30 16:21:30;;;;;;;;;;;;;;;;;;2204496;67;3177;-21
2023/10/30 16:24:00;;;;;;;;;;;;;;;;;;2204723;67;3643;-21
2023/10/30 16:26:31;;;;;;;;;;;;;;;;;;2204112;59;2104;-21
2023/10/30 16:29:03;;;;;;;;;;;;;;;;;;2198321;59;4112;-21
2023/10/30 16:31:35;;;;;;;;;;;;;;;;;;2200997;59;2910;-21
2023/10/30 16:34:05;;;;;;;;;;;;;;;;;;2201016;59;3866;-22
2023/10/30 16:36:36;;;;;;;;;;;;;;;;;;2201632;67;3891;-22
2023/10/30 16:39:07;;;;;;;;;;;;;;;;;;2200877;59;3662;-22
2023/10/30 16:41:38;;;;;;;;;;;;;;;;;;2199781;59;2765;-22
2023/10/30 16:44:08;;;;;;;;;;;;;;;;;;2200674;59;2855;-22
2023/10/30 16:46:39;;;;;;;;;;;;;;;;;;2205479;67;4079;-22
2023/10/30 16:49:09;;;;;;;;;;;;;;;;;;2197665;67;3727;-21
2023/10/30 16:51:40;;;;;;;;;;;;;;;;;;2200580;67;2511;-21
2023/10/30 16:54:10;;;;;;;;;;;;;;;;;;2200343;59;3522;-22
2023/10/30 16:56:40;;;;;;;;;;;;;;;;;;2205281;59;2844;-21
2023/10/30 16:59:11;;;;;;;;;;;;;;;;;;2200330;59;4034;-21
2023/10/30 17:01:41;;;;;;;;;;;;;;;;;;2201542;59;2063;-22
2023/10/30 17:04:12;;;;;;;;;;;;;;;;;;2204067;59;2662;-21
2023/10/30 17:06:42;;;;;;;;;;;;;;;;;;2205549;59;3874;-21
2023/10/30 17:09:13;;;;;;;;;;;;;;;;;;2203209;59;3241;-21
2023/10/30 17:11:43;;;;;;;;;;;;;;;;;;2198895;59;3138;-22
2023/10/30 17:14:14;;;;;;;;;;;;;;;;;;2204136;67;3731;-21
2023/10/30 17:16:45;;;;;;;;;;;;;;;;;;2205007;67;2725;-21
2023/10/30 17:19:15;;;;;;;;;;;;;;;;;;2204025;67;2833;-22
2023/10/30 17:21:45;;;;;;;;;;;;;;;;;;2205097;59;2607;-22
2023/10/30 17:24:16;;;;;;;;;;;;;;;;;;2203514;59;4542;-21
2023/10/30 17:26:46;;;;;;;;;;;;;;;;;;2201077;59;3042;-22
2023/10/30 17:29:16;;;;;;;;;;;;;;;;;;2203739;59;2574;-22